createdAt,value
2023-04-22T00:00:34.152Z,100061.03
2023-04-22T00:05:37.766Z,100060.34
2023-04-22T00:10:42.150Z,100064.56
2023-04-22T00:15:44.912Z,100066.69
2023-04-22T00:20:47.686Z,100056.31
2023-04-22T00:25:52.145Z,100045.69
2023-04-22T00:30:54.927Z,100040.91
2023-04-22T00:35:57.813Z,100040.44
2023-04-22T00:41:02.224Z,100040.59
2023-04-22T00:46:05.259Z,100036.59
2023-04-22T00:51:08.793Z,100034.75
2023-04-22T00:56:13.561Z,100036.72
2023-04-22T01:01:16.478Z,100033.63
2023-04-22T01:06:19.794Z,100028.34
2023-04-22T01:11:24.305Z,100027.78
2023-04-22T01:16:29.348Z,100020.13
2023-04-22T01:21:34.285Z,100021.50
2023-04-22T01:26:38.719Z,100019.97
2023-04-22T01:31:41.608Z,100017.75
2023-04-22T01:36:45.032Z,100014.66
2023-04-22T01:41:49.128Z,100018.56
2023-04-22T01:46:51.918Z,100013.75
2023-04-22T01:51:54.801Z,100006.06
2023-04-22T01:56:59.485Z,100012.72
2023-04-22T02:02:02.268Z,100007.88
2023-04-22T02:07:05.310Z,100003.00
2023-04-22T02:12:10.521Z,100008.53
2023-04-22T02:17:17.733Z,100008.09
2023-04-22T02:22:21.813Z,100009.00
2023-04-22T02:27:28.446Z,99999.50
2023-04-22T02:32:31.544Z,100001.75
2023-04-22T02:37:34.800Z,99999.75
2023-04-22T02:42:38.887Z,99997.06
2023-04-22T02:47:41.728Z,100007.91
2023-04-22T02:52:44.597Z,99998.94
2023-04-22T02:57:48.738Z,99991.53
2023-04-22T03:02:52.055Z,99987.91
2023-04-22T03:07:58.314Z,99987.06
2023-04-22T03:13:02.411Z,99980.25
2023-04-22T03:18:05.892Z,99982.59
2023-04-22T03:23:09.026Z,99988.50
2023-04-22T03:28:14.549Z,99984.22
2023-04-22T03:33:17.856Z,99983.88
2023-04-22T03:38:31.623Z,99995.84
2023-04-22T03:43:35.860Z,99989.75
2023-04-22T03:48:42.969Z,99991.44
2023-04-22T03:53:52.703Z,99992.69
2023-04-22T03:58:59.366Z,99996.13
2023-04-22T04:04:02.912Z,99985.41
2023-04-22T04:09:14.436Z,99989.25
2023-04-22T04:14:18.766Z,99987.81
2023-04-22T04:19:23.295Z,99984.78
2023-04-22T04:24:26.901Z,99977.81
2023-04-22T04:29:37.792Z,99987.22
2023-04-22T04:34:47.532Z,99982.09
2023-04-22T04:39:53.634Z,99990.63
2023-04-22T04:45:00.790Z,99996.50
2023-04-22T04:50:05.593Z,100002.72
2023-04-22T04:55:10.612Z,99998.56
2023-04-22T05:00:15.672Z,100000.03
2023-04-22T05:05:19.919Z,100008.44
2023-04-22T05:10:23.267Z,100008.78
2023-04-22T05:15:27.615Z,100012.94
2023-04-22T05:20:30.946Z,100012.56
2023-04-22T05:25:34.984Z,100015.72
2023-04-22T05:30:44.364Z,100009.75
2023-04-22T05:35:47.503Z,100002.78
2023-04-22T05:40:50.865Z,100014.91
2023-04-22T05:45:56.557Z,100019.34
2023-04-22T05:50:59.378Z,100022.53
2023-04-22T05:56:05.152Z,100018.88
2023-04-22T06:01:11.157Z,100022.25
2023-04-22T06:06:25.843Z,100022.00
2023-04-22T06:11:29.564Z,100020.03
2023-04-22T06:16:34.659Z,100013.81
2023-04-22T06:21:40.037Z,100015.78
2023-04-22T06:26:43.016Z,100022.72
2023-04-22T06:31:47.629Z,100028.84
2023-04-22T06:36:51.216Z,100017.34
2023-04-22T06:41:54.146Z,100018.34
2023-04-22T06:47:36.869Z,100021.03
2023-04-22T06:52:49.558Z,100015.66
2023-04-22T06:57:52.328Z,100011.75
2023-04-22T07:02:56.913Z,100013.19
2023-04-22T07:08:00.742Z,100006.47
2023-04-22T07:13:03.893Z,100003.16
2023-04-22T07:18:08.200Z,100008.34
2023-04-22T07:23:11.137Z,99996.19
2023-04-22T07:28:13.928Z,100000.97
2023-04-22T07:33:18.052Z,99992.91
2023-04-22T07:38:20.921Z,99993.88
2023-04-22T07:43:23.696Z,99998.69
2023-04-22T07:48:27.804Z,99998.16
2023-04-22T07:53:30.633Z,99989.31
2023-04-22T07:58:33.525Z,99983.16
2023-04-22T08:03:37.931Z,99987.03
2023-04-22T08:08:41.005Z,99980.44
2023-04-22T08:13:43.813Z,99977.25
2023-04-22T08:18:47.963Z,99978.28
2023-04-22T08:23:50.718Z,99974.00
2023-04-22T08:28:53.483Z,99968.38
2023-04-22T08:33:57.730Z,99974.06
2023-04-22T08:39:00.598Z,99965.31
2023-04-22T08:44:03.432Z,99967.13
2023-04-22T08:49:07.749Z,99958.63
2023-04-22T08:54:11.126Z,99966.13
2023-04-22T08:59:14.083Z,99966.13
2023-04-22T09:04:19.897Z,99954.31
2023-04-22T09:09:23.602Z,99945.19
2023-04-22T09:14:27.352Z,99946.03
2023-04-22T09:19:31.436Z,99940.66
2023-04-22T09:24:34.301Z,99934.41
2023-04-22T09:29:37.488Z,99930.94
2023-04-22T09:34:50.513Z,99927.47
2023-04-22T09:39:53.360Z,99918.72
2023-04-22T09:44:56.419Z,99908.06
2023-04-22T09:50:00.874Z,99909.75
2023-04-22T09:55:04.115Z,99909.75
2023-04-22T10:00:10.386Z,99904.63
2023-04-22T10:05:14.665Z,99907.84
2023-04-22T10:10:17.751Z,99905.09
2023-04-22T10:15:21.022Z,99901.00
2023-04-22T10:20:25.913Z,99898.50
2023-04-22T10:25:28.698Z,99891.84
2023-04-22T10:30:32.759Z,99887.50
2023-04-22T10:35:36.970Z,99886.78
2023-04-22T10:40:39.795Z,99883.97
2023-04-22T10:45:42.865Z,99883.75
2023-04-22T10:50:47.304Z,99863.13
2023-04-22T10:55:51.128Z,99861.44
2023-04-22T11:00:59.757Z,99857.91
2023-04-22T11:06:17.271Z,99845.31
2023-04-22T11:11:20.125Z,99837.66
2023-04-22T11:16:23.309Z,99832.81
2023-04-22T11:21:27.614Z,99840.34
2023-04-22T11:26:37.435Z,99836.97
2023-04-22T11:31:40.821Z,99837.94
2023-04-22T11:36:46.317Z,99829.88
2023-04-22T11:41:49.078Z,99822.97
2023-04-22T11:46:51.940Z,99822.81
2023-04-22T11:51:56.965Z,99812.75
2023-04-22T11:57:03.070Z,99817.44
2023-04-22T12:02:06.745Z,99817.81
2023-04-22T12:07:12.288Z,99826.88
2023-04-22T12:12:15.780Z,99814.56
2023-04-22T12:17:23.749Z,99813.56
2023-04-22T12:22:28.336Z,99806.34
2023-04-22T12:27:31.632Z,99804.69
2023-04-22T12:32:34.594Z,99802.13
2023-04-22T12:37:38.903Z,99795.75
2023-04-22T12:42:41.680Z,99800.84
2023-04-22T12:47:45.117Z,99787.13
2023-04-22T12:52:49.241Z,99779.72
2023-04-22T12:57:52.039Z,99771.78
2023-04-22T13:02:55.308Z,99766.19
2023-04-22T13:08:06.603Z,99761.19
2023-04-22T13:13:18.483Z,99761.84
2023-04-22T13:18:22.609Z,99748.22
2023-04-22T13:23:27.653Z,99748.91
2023-04-22T13:28:30.706Z,99741.03
2023-04-22T13:33:34.633Z,99737.13
2023-04-22T13:38:38.785Z,99730.47
2023-04-22T13:43:41.499Z,99711.41
2023-04-22T13:48:44.271Z,99720.00
2023-04-22T13:53:48.398Z,99711.06
2023-04-22T13:58:51.164Z,99704.66
2023-04-22T14:03:54.648Z,99689.38
2023-04-22T14:08:58.840Z,99689.25
2023-04-22T14:14:01.724Z,99678.72
2023-04-22T14:19:06.299Z,99667.50
2023-04-22T14:24:10.551Z,99664.59
2023-04-22T14:29:13.296Z,99666.00
2023-04-22T14:34:16.088Z,99654.19
2023-04-22T14:44:50.228Z,99638.81
2023-04-22T14:49:53.003Z,99638.81
2023-04-22T14:54:55.932Z,99628.28
2023-04-22T15:00:00.051Z,99629.81
2023-04-22T15:05:02.988Z,99612.72
2023-04-22T15:10:07.914Z,99607.69
2023-04-22T15:15:13.898Z,99606.47
2023-04-22T15:20:16.900Z,99612.22
2023-04-22T15:25:19.825Z,99607.03
2023-04-22T15:30:24.127Z,99611.19
2023-04-22T15:35:27.017Z,99604.41
2023-04-22T15:40:29.797Z,99607.22
2023-04-22T15:45:34.807Z,99604.41
2023-04-22T15:50:38.871Z,99595.03
2023-04-22T15:55:42.968Z,99597.81
2023-04-22T16:00:54.267Z,99596.00
2023-04-22T16:05:58.404Z,99589.78
2023-04-22T16:11:01.126Z,99584.38
2023-04-22T16:16:05.471Z,99587.59
2023-04-22T16:21:08.271Z,99574.38
2023-04-22T16:26:11.269Z,99572.69
2023-04-22T16:31:17.885Z,99576.09
2023-04-22T16:36:21.485Z,99570.72
2023-04-22T16:41:24.272Z,99571.00
2023-04-22T16:46:28.444Z,99570.16
2023-04-22T16:51:31.268Z,99569.38
2023-04-22T16:56:34.114Z,99569.19
2023-04-22T17:01:38.255Z,99570.88
2023-04-22T17:06:41.625Z,99564.56
2023-04-22T17:11:44.447Z,99568.69
2023-04-22T17:16:48.601Z,99561.38
2023-04-22T17:21:51.897Z,99559.97
2023-04-22T17:26:57.402Z,99562.91
2023-04-22T17:32:02.222Z,99555.50
2023-04-22T17:37:05.064Z,99551.69
2023-04-22T17:42:08.853Z,99552.59
2023-04-22T17:47:13.206Z,99552.00
2023-04-22T17:52:16.493Z,99541.66
2023-04-22T17:57:19.311Z,99544.84
2023-04-22T18:02:24.999Z,99541.06
2023-04-22T18:07:30.254Z,99544.44
2023-04-22T18:12:34.701Z,99538.28
2023-04-22T18:17:42.017Z,99549.75
2023-04-22T18:22:44.808Z,99547.59
2023-04-22T18:27:47.673Z,99552.41
2023-04-22T18:32:52.106Z,99553.66
2023-04-22T18:37:54.975Z,99559.50
2023-04-22T18:42:58.147Z,99566.97
2023-04-22T18:48:02.271Z,99562.03
2023-04-22T18:53:05.207Z,99568.13
2023-04-22T18:58:08.056Z,99569.25
2023-04-22T19:03:12.752Z,99566.44
2023-04-22T19:08:15.610Z,99566.72
2023-04-22T19:13:29.122Z,99561.19
2023-04-22T19:18:34.290Z,99564.19
2023-04-22T19:23:37.935Z,99570.41
2023-04-22T19:28:46.870Z,99560.50
2023-04-22T19:33:51.381Z,99553.09
2023-04-22T19:38:54.506Z,99567.56
2023-04-22T19:43:58.886Z,99555.09
2023-04-22T19:49:03.699Z,99558.50
2023-04-22T19:54:07.483Z,99548.56
2023-04-22T19:59:10.468Z,99544.91
2023-04-22T20:04:16.045Z,99548.66
2023-04-22T20:09:19.655Z,99543.13
2023-04-22T20:14:23.429Z,99541.06
2023-04-22T20:19:28.385Z,99533.81
2023-04-22T20:24:31.263Z,99531.13
2023-04-22T20:29:34.448Z,99523.66
2023-04-22T20:34:39.369Z,99535.50
2023-04-22T20:39:43.167Z,99529.13
2023-04-22T20:44:45.947Z,99531.81
2023-04-22T20:49:50.171Z,99531.06
2023-04-22T20:54:55.124Z,99535.59
2023-04-22T20:59:57.919Z,99533.59
2023-04-22T21:05:02.267Z,99538.13
2023-04-22T21:10:06.105Z,99531.50
2023-04-22T21:15:10.051Z,99529.97
2023-04-22T21:20:14.498Z,99538.13
2023-04-22T21:25:20.765Z,99531.38
2023-04-22T21:30:24.457Z,99535.75
2023-04-22T21:35:29.909Z,99541.81
2023-04-22T21:40:32.731Z,99539.97
2023-04-22T21:45:35.874Z,99537.28
2023-04-22T21:50:40.150Z,99541.97
2023-04-22T21:55:42.898Z,99538.66
2023-04-22T22:00:47.249Z,99546.22
2023-04-22T22:05:51.781Z,99548.97
2023-04-22T22:10:54.604Z,99552.13
2023-04-22T22:15:57.506Z,99552.38
2023-04-22T22:21:01.856Z,99552.44
2023-04-22T22:26:04.650Z,99554.69
2023-04-22T22:31:08.057Z,99565.47
2023-04-22T22:36:12.433Z,99568.00
2023-04-22T22:41:15.310Z,99560.91
2023-04-22T22:46:18.187Z,99564.47
2023-04-22T22:51:22.325Z,99563.75
2023-04-22T22:56:25.121Z,99568.00
2023-04-22T23:01:28.102Z,99561.75
2023-04-22T23:06:32.810Z,99564.59
2023-04-22T23:11:35.674Z,99559.91
2023-04-22T23:16:38.982Z,99558.59
2023-04-22T23:21:43.239Z,99562.13
2023-04-22T23:26:46.517Z,99557.91
2023-04-22T23:31:49.325Z,99563.28
2023-04-22T23:36:53.784Z,99559.75
2023-04-22T23:41:56.601Z,99560.97
2023-04-22T23:46:59.374Z,99560.28
2023-04-22T23:52:03.479Z,99553.22
2023-04-22T23:57:06.762Z,99552.69
